sensor_id;sensor_type;location;lat;lon;timestamp;P1;durP1;ratioP1;P2;durP2;ratioP2
4597;SDS011;62772;48.646;8.906;2023-02-15T00:03:36;35.97;;;19.00;;
4597;SDS011;62772;48.646;8.906;2023-02-15T00:08:37;39.20;;;19.07;;
4597;SDS011;62772;48.646;8.906;2023-02-15T00:13:38;33.60;;;18.50;;
4597;SDS011;62772;48.646;8.906;2023-02-15T00:18:41;43.50;;;20.17;;
4597;SDS011;62772;48.646;8.906;2023-02-15T00:23:42;43.20;;;19.73;;
4597;SDS011;62772;48.646;8.906;2023-02-15T00:28:42;43.20;;;21.10;;
4597;SDS011;62772;48.646;8.906;2023-02-15T00:33:43;38.37;;;17.93;;
4597;SDS011;62772;48.646;8.906;2023-02-15T00:38:43;40.13;;;18.63;;
4597;SDS011;62772;48.646;8.906;2023-02-15T00:43:44;39.83;;;18.93;;
4597;SDS011;62772;48.646;8.906;2023-02-15T00:48:44;40.47;;;19.23;;
4597;SDS011;62772;48.646;8.906;2023-02-15T00:53:45;31.23;;;16.47;;
4597;SDS011;62772;48.646;8.906;2023-02-15T00:58:47;37.83;;;18.10;;
4597;SDS011;62772;48.646;8.906;2023-02-15T01:03:48;39.10;;;17.53;;
4597;SDS011;62772;48.646;8.906;2023-02-15T01:08:48;39.97;;;19.07;;
4597;SDS011;62772;48.646;8.906;2023-02-15T01:13:49;33.20;;;15.90;;
4597;SDS011;62772;48.646;8.906;2023-02-15T01:18:51;42.30;;;19.13;;
4597;SDS011;62772;48.646;8.906;2023-02-15T01:23:52;35.80;;;17.87;;
4597;SDS011;62772;48.646;8.906;2023-02-15T01:28:53;34.47;;;17.40;;
4597;SDS011;62772;48.646;8.906;2023-02-15T01:33:53;35.53;;;17.80;;
4597;SDS011;62772;48.646;8.906;2023-02-15T01:38:53;37.37;;;18.13;;
4597;SDS011;62772;48.646;8.906;2023-02-15T01:43:55;40.83;;;18.43;;
4597;SDS011;62772;48.646;8.906;2023-02-15T01:49:06;41.17;;;17.67;;
4597;SDS011;62772;48.646;8.906;2023-02-15T01:54:23;37.37;;;17.53;;
4597;SDS011;62772;48.646;8.906;2023-02-15T01:59:27;36.27;;;17.83;;
4597;SDS011;62772;48.646;8.906;2023-02-15T02:04:39;36.47;;;17.73;;
4597;SDS011;62772;48.646;8.906;2023-02-15T02:09:45;34.70;;;16.03;;
4597;SDS011;62772;48.646;8.906;2023-02-15T02:14:46;39.17;;;17.33;;
4597;SDS011;62772;48.646;8.906;2023-02-15T02:36:31;37.70;;;17.93;;
4597;SDS011;62772;48.646;8.906;2023-02-15T02:47:02;48.97;;;17.70;;
4597;SDS011;62772;48.646;8.906;2023-02-15T02:57:32;35.97;;;17.50;;
4597;SDS011;62772;48.646;8.906;2023-02-15T03:02:36;37.30;;;18.23;;
4597;SDS011;62772;48.646;8.906;2023-02-15T03:07:41;38.33;;;17.27;;
4597;SDS011;62772;48.646;8.906;2023-02-15T03:12:47;37.27;;;18.90;;
4597;SDS011;62772;48.646;8.906;2023-02-15T03:17:51;39.47;;;17.90;;
4597;SDS011;62772;48.646;8.906;2023-02-15T03:22:57;41.20;;;19.20;;
4597;SDS011;62772;48.646;8.906;2023-02-15T03:28:03;34.70;;;16.90;;
4597;SDS011;62772;48.646;8.906;2023-02-15T03:33:09;33.83;;;17.63;;
4597;SDS011;62772;48.646;8.906;2023-02-15T03:38:11;34.40;;;17.00;;
4597;SDS011;62772;48.646;8.906;2023-02-15T03:43:24;35.37;;;17.00;;
4597;SDS011;62772;48.646;8.906;2023-02-15T03:48:32;32.90;;;16.00;;
4597;SDS011;62772;48.646;8.906;2023-02-15T03:53:37;31.73;;;16.83;;
4597;SDS011;62772;48.646;8.906;2023-02-15T03:58:39;32.63;;;16.90;;
4597;SDS011;62772;48.646;8.906;2023-02-15T04:04:03;31.40;;;16.50;;
4597;SDS011;62772;48.646;8.906;2023-02-15T04:09:11;27.40;;;15.67;;
4597;SDS011;62772;48.646;8.906;2023-02-15T04:14:31;32.27;;;16.40;;
4597;SDS011;62772;48.646;8.906;2023-02-15T04:19:49;33.30;;;16.73;;
4597;SDS011;62772;48.646;8.906;2023-02-15T04:25:08;34.10;;;17.90;;
4597;SDS011;62772;48.646;8.906;2023-02-15T04:30:13;31.80;;;17.80;;
4597;SDS011;62772;48.646;8.906;2023-02-15T04:35:14;35.60;;;18.03;;
4597;SDS011;62772;48.646;8.906;2023-02-15T04:40:15;34.93;;;17.90;;
4597;SDS011;62772;48.646;8.906;2023-02-15T04:45:16;34.57;;;17.63;;
4597;SDS011;62772;48.646;8.906;2023-02-15T04:50:17;40.23;;;17.50;;
4597;SDS011;62772;48.646;8.906;2023-02-15T04:55:18;32.27;;;16.63;;
4597;SDS011;62772;48.646;8.906;2023-02-15T05:00:18;39.60;;;17.80;;
4597;SDS011;62772;48.646;8.906;2023-02-15T05:05:19;34.80;;;17.03;;
4597;SDS011;62772;48.646;8.906;2023-02-15T05:10:19;34.40;;;17.23;;
4597;SDS011;62772;48.646;8.906;2023-02-15T05:15:20;31.60;;;16.00;;
4597;SDS011;62772;48.646;8.906;2023-02-15T05:20:20;34.73;;;16.97;;
4597;SDS011;62772;48.646;8.906;2023-02-15T05:25:21;34.70;;;17.10;;
4597;SDS011;62772;48.646;8.906;2023-02-15T05:30:40;29.87;;;15.50;;
4597;SDS011;62772;48.646;8.906;2023-02-15T05:35:40;30.97;;;15.40;;
4597;SDS011;62772;48.646;8.906;2023-02-15T05:40:41;29.20;;;15.13;;
4597;SDS011;62772;48.646;8.906;2023-02-15T05:45:46;27.40;;;14.50;;
4597;SDS011;62772;48.646;8.906;2023-02-15T05:50:57;27.40;;;15.07;;
4597;SDS011;62772;48.646;8.906;2023-02-15T05:56:01;29.10;;;14.50;;
4597;SDS011;62772;48.646;8.906;2023-02-15T06:01:09;30.83;;;15.27;;
4597;SDS011;62772;48.646;8.906;2023-02-15T06:06:10;31.63;;;16.27;;
4597;SDS011;62772;48.646;8.906;2023-02-15T06:11:11;32.00;;;15.33;;
4597;SDS011;62772;48.646;8.906;2023-02-15T06:16:11;38.77;;;16.00;;
4597;SDS011;62772;48.646;8.906;2023-02-15T06:21:12;30.27;;;15.57;;
4597;SDS011;62772;48.646;8.906;2023-02-15T06:26:12;27.87;;;16.27;;
4597;SDS011;62772;48.646;8.906;2023-02-15T06:31:13;34.60;;;15.30;;
4597;SDS011;62772;48.646;8.906;2023-02-15T06:36:14;28.13;;;14.03;;
4597;SDS011;62772;48.646;8.906;2023-02-15T06:41:14;30.77;;;15.10;;
4597;SDS011;62772;48.646;8.906;2023-02-15T06:46:14;34.50;;;15.27;;
4597;SDS011;62772;48.646;8.906;2023-02-15T06:51:15;30.13;;;15.37;;
4597;SDS011;62772;48.646;8.906;2023-02-15T06:56:15;36.30;;;16.07;;
4597;SDS011;62772;48.646;8.906;2023-02-15T07:01:16;32.13;;;16.37;;
4597;SDS011;62772;48.646;8.906;2023-02-15T07:06:16;35.93;;;17.77;;
4597;SDS011;62772;48.646;8.906;2023-02-15T07:11:17;35.63;;;17.50;;
4597;SDS011;62772;48.646;8.906;2023-02-15T07:16:35;30.70;;;15.83;;
4597;SDS011;62772;48.646;8.906;2023-02-15T07:21:36;31.90;;;16.73;;
4597;SDS011;62772;48.646;8.906;2023-02-15T07:26:36;36.73;;;19.27;;
4597;SDS011;62772;48.646;8.906;2023-02-15T07:31:37;45.17;;;18.43;;
4597;SDS011;62772;48.646;8.906;2023-02-15T07:36:37;31.10;;;16.93;;
4597;SDS011;62772;48.646;8.906;2023-02-15T07:41:38;78.50;;;19.60;;
4597;SDS011;62772;48.646;8.906;2023-02-15T07:46:45;42.63;;;17.87;;
4597;SDS011;62772;48.646;8.906;2023-02-15T07:51:45;36.57;;;20.93;;
4597;SDS011;62772;48.646;8.906;2023-02-15T07:56:46;34.17;;;16.80;;
4597;SDS011;62772;48.646;8.906;2023-02-15T08:01:46;25.57;;;14.37;;
4597;SDS011;62772;48.646;8.906;2023-02-15T08:06:47;30.13;;;16.30;;
4597;SDS011;62772;48.646;8.906;2023-02-15T08:11:47;26.40;;;14.60;;
4597;SDS011;62772;48.646;8.906;2023-02-15T08:16:49;26.40;;;15.00;;
4597;SDS011;62772;48.646;8.906;2023-02-15T08:21:56;26.93;;;15.13;;
4597;SDS011;62772;48.646;8.906;2023-02-15T08:26:58;29.40;;;14.80;;
4597;SDS011;62772;48.646;8.906;2023-02-15T08:32:00;34.63;;;15.77;;
4597;SDS011;62772;48.646;8.906;2023-02-15T08:37:03;27.37;;;13.97;;
4597;SDS011;62772;48.646;8.906;2023-02-15T08:42:03;29.80;;;13.37;;
4597;SDS011;62772;48.646;8.906;2023-02-15T08:47:04;27.03;;;15.20;;
4597;SDS011;62772;48.646;8.906;2023-02-15T08:52:04;26.93;;;14.77;;
4597;SDS011;62772;48.646;8.906;2023-02-15T08:57:05;25.53;;;13.83;;
4597;SDS011;62772;48.646;8.906;2023-02-15T09:02:09;25.63;;;14.00;;
4597;SDS011;62772;48.646;8.906;2023-02-15T09:07:10;22.23;;;12.43;;
4597;SDS011;62772;48.646;8.906;2023-02-15T09:12:10;25.10;;;13.47;;
4597;SDS011;62772;48.646;8.906;2023-02-15T09:17:10;22.77;;;13.57;;
4597;SDS011;62772;48.646;8.906;2023-02-15T09:22:11;25.10;;;13.93;;
4597;SDS011;62772;48.646;8.906;2023-02-15T09:27:11;29.07;;;13.73;;
4597;SDS011;62772;48.646;8.906;2023-02-15T09:32:13;22.47;;;13.10;;
4597;SDS011;62772;48.646;8.906;2023-02-15T09:37:14;25.00;;;14.37;;
4597;SDS011;62772;48.646;8.906;2023-02-15T09:47:44;27.37;;;14.10;;
4597;SDS011;62772;48.646;8.906;2023-02-15T10:09:06;23.40;;;11.93;;
4597;SDS011;62772;48.646;8.906;2023-02-15T10:14:43;21.57;;;11.60;;
4597;SDS011;62772;48.646;8.906;2023-02-15T10:19:44;23.00;;;12.03;;
4597;SDS011;62772;48.646;8.906;2023-02-15T10:41:06;23.20;;;11.77;;
4597;SDS011;62772;48.646;8.906;2023-02-15T10:51:35;22.80;;;12.23;;
4597;SDS011;62772;48.646;8.906;2023-02-15T11:01:59;23.43;;;10.97;;
4597;SDS011;62772;48.646;8.906;2023-02-15T11:07:25;20.23;;;11.60;;
4597;SDS011;62772;48.646;8.906;2023-02-15T11:12:32;17.40;;;10.70;;
4597;SDS011;62772;48.646;8.906;2023-02-15T11:17:34;19.87;;;10.80;;
4597;SDS011;62772;48.646;8.906;2023-02-15T11:22:39;19.50;;;10.20;;
4597;SDS011;62772;48.646;8.906;2023-02-15T11:27:40;16.27;;;10.30;;
4597;SDS011;62772;48.646;8.906;2023-02-15T11:32:45;20.47;;;10.93;;
4597;SDS011;62772;48.646;8.906;2023-02-15T11:37:51;15.83;;;9.90;;
4597;SDS011;62772;48.646;8.906;2023-02-15T11:43:02;15.33;;;9.37;;
4597;SDS011;62772;48.646;8.906;2023-02-15T11:48:10;20.73;;;9.90;;
4597;SDS011;62772;48.646;8.906;2023-02-15T11:53:14;14.13;;;9.10;;
4597;SDS011;62772;48.646;8.906;2023-02-15T11:58:23;16.43;;;9.43;;
4597;SDS011;62772;48.646;8.906;2023-02-15T12:03:48;16.13;;;9.00;;
4597;SDS011;62772;48.646;8.906;2023-02-15T12:14:21;18.10;;;8.20;;
4597;SDS011;62772;48.646;8.906;2023-02-15T12:19:31;12.70;;;7.47;;
4597;SDS011;62772;48.646;8.906;2023-02-15T12:24:45;12.90;;;6.83;;
4597;SDS011;62772;48.646;8.906;2023-02-15T12:29:48;7.93;;;5.10;;
4597;SDS011;62772;48.646;8.906;2023-02-15T12:34:54;8.90;;;5.50;;
4597;SDS011;62772;48.646;8.906;2023-02-15T12:40:00;10.80;;;5.77;;
4597;SDS011;62772;48.646;8.906;2023-02-15T12:45:28;6.40;;;3.80;;
4597;SDS011;62772;48.646;8.906;2023-02-15T12:50:30;8.17;;;4.13;;
4597;SDS011;62772;48.646;8.906;2023-02-15T12:55:33;16.67;;;4.60;;
4597;SDS011;62772;48.646;8.906;2023-02-15T13:00:33;11.20;;;3.70;;
4597;SDS011;62772;48.646;8.906;2023-02-15T13:05:38;8.20;;;4.10;;
4597;SDS011;62772;48.646;8.906;2023-02-15T13:10:42;11.20;;;4.20;;
4597;SDS011;62772;48.646;8.906;2023-02-15T13:15:54;9.23;;;5.13;;
4597;SDS011;62772;48.646;8.906;2023-02-15T13:21:04;8.83;;;4.60;;
4597;SDS011;62772;48.646;8.906;2023-02-15T13:26:14;8.80;;;4.83;;
4597;SDS011;62772;48.646;8.906;2023-02-15T13:31:19;9.30;;;4.87;;
4597;SDS011;62772;48.646;8.906;2023-02-15T13:41:56;8.40;;;4.20;;
4597;SDS011;62772;48.646;8.906;2023-02-15T13:47:12;8.10;;;3.97;;
4597;SDS011;62772;48.646;8.906;2023-02-15T13:52:24;7.87;;;4.33;;
4597;SDS011;62772;48.646;8.906;2023-02-15T14:02:47;9.77;;;4.30;;
4597;SDS011;62772;48.646;8.906;2023-02-15T14:08:14;8.03;;;4.67;;
4597;SDS011;62772;48.646;8.906;2023-02-15T14:19:09;7.20;;;4.10;;
4597;SDS011;62772;48.646;8.906;2023-02-15T14:24:42;10.67;;;4.10;;
4597;SDS011;62772;48.646;8.906;2023-02-15T14:35:00;9.90;;;4.57;;
4597;SDS011;62772;48.646;8.906;2023-02-15T14:45:52;13.37;;;7.20;;
4597;SDS011;62772;48.646;8.906;2023-02-15T14:50:54;24.37;;;10.07;;
4597;SDS011;62772;48.646;8.906;2023-02-15T15:01:10;19.20;;;11.30;;
4597;SDS011;62772;48.646;8.906;2023-02-15T15:06:23;23.63;;;11.30;;
4597;SDS011;62772;48.646;8.906;2023-02-15T15:16:31;21.77;;;11.80;;
4597;SDS011;62772;48.646;8.906;2023-02-15T15:32:32;22.70;;;12.90;;
4597;SDS011;62772;48.646;8.906;2023-02-15T15:53:33;23.13;;;12.70;;
4597;SDS011;62772;48.646;8.906;2023-02-15T15:58:43;21.57;;;13.00;;
4597;SDS011;62772;48.646;8.906;2023-02-15T16:03:49;23.97;;;12.77;;
4597;SDS011;62772;48.646;8.906;2023-02-15T16:08:51;23.00;;;12.90;;
4597;SDS011;62772;48.646;8.906;2023-02-15T16:13:51;25.30;;;13.03;;
4597;SDS011;62772;48.646;8.906;2023-02-15T16:18:53;26.13;;;13.73;;
4597;SDS011;62772;48.646;8.906;2023-02-15T16:29:26;19.07;;;10.80;;
4597;SDS011;62772;48.646;8.906;2023-02-15T16:34:31;23.70;;;12.00;;
4597;SDS011;62772;48.646;8.906;2023-02-15T16:39:32;23.70;;;12.20;;
4597;SDS011;62772;48.646;8.906;2023-02-15T16:44:41;20.77;;;12.80;;
4597;SDS011;62772;48.646;8.906;2023-02-15T16:49:44;24.60;;;13.50;;
4597;SDS011;62772;48.646;8.906;2023-02-15T16:54:48;25.43;;;14.30;;
4597;SDS011;62772;48.646;8.906;2023-02-15T16:59:55;26.43;;;14.90;;
4597;SDS011;62772;48.646;8.906;2023-02-15T17:10:26;36.07;;;17.50;;
4597;SDS011;62772;48.646;8.906;2023-02-15T17:15:36;27.40;;;11.87;;
4597;SDS011;62772;48.646;8.906;2023-02-15T17:20:39;19.27;;;11.17;;
4597;SDS011;62772;48.646;8.906;2023-02-15T17:25:43;24.40;;;9.27;;
4597;SDS011;62772;48.646;8.906;2023-02-15T17:30:44;24.20;;;11.47;;
4597;SDS011;62772;48.646;8.906;2023-02-15T17:36:01;24.57;;;12.37;;
4597;SDS011;62772;48.646;8.906;2023-02-15T17:41:30;25.80;;;11.50;;
4597;SDS011;62772;48.646;8.906;2023-02-15T17:46:34;25.47;;;13.90;;
4597;SDS011;62772;48.646;8.906;2023-02-15T17:51:36;23.83;;;13.77;;
4597;SDS011;62772;48.646;8.906;2023-02-15T17:56:37;29.90;;;13.97;;
4597;SDS011;62772;48.646;8.906;2023-02-15T18:01:45;26.67;;;14.73;;
4597;SDS011;62772;48.646;8.906;2023-02-15T18:07:07;31.17;;;15.60;;
4597;SDS011;62772;48.646;8.906;2023-02-15T18:12:28;29.00;;;15.07;;
4597;SDS011;62772;48.646;8.906;2023-02-15T18:17:48;29.83;;;13.47;;
4597;SDS011;62772;48.646;8.906;2023-02-15T18:22:50;28.07;;;13.60;;
4597;SDS011;62772;48.646;8.906;2023-02-15T18:27:51;27.77;;;12.83;;
4597;SDS011;62772;48.646;8.906;2023-02-15T18:32:52;26.83;;;13.60;;
4597;SDS011;62772;48.646;8.906;2023-02-15T18:37:55;23.53;;;13.07;;
4597;SDS011;62772;48.646;8.906;2023-02-15T18:42:59;30.00;;;14.83;;
4597;SDS011;62772;48.646;8.906;2023-02-15T18:48:00;27.93;;;15.10;;
4597;SDS011;62772;48.646;8.906;2023-02-15T18:53:04;26.87;;;13.40;;
4597;SDS011;62772;48.646;8.906;2023-02-15T18:58:08;23.67;;;12.87;;
4597;SDS011;62772;48.646;8.906;2023-02-15T19:03:14;24.33;;;12.63;;
4597;SDS011;62772;48.646;8.906;2023-02-15T19:08:17;18.90;;;12.20;;
4597;SDS011;62772;48.646;8.906;2023-02-15T19:13:22;25.60;;;13.93;;
4597;SDS011;62772;48.646;8.906;2023-02-15T19:18:22;33.00;;;15.63;;
4597;SDS011;62772;48.646;8.906;2023-02-15T19:23:22;26.20;;;13.20;;
4597;SDS011;62772;48.646;8.906;2023-02-15T19:28:26;26.67;;;13.50;;
4597;SDS011;62772;48.646;8.906;2023-02-15T19:33:32;32.30;;;15.37;;
4597;SDS011;62772;48.646;8.906;2023-02-15T19:38:33;28.27;;;14.87;;
4597;SDS011;62772;48.646;8.906;2023-02-15T19:43:35;26.43;;;14.40;;
4597;SDS011;62772;48.646;8.906;2023-02-15T19:48:36;25.93;;;14.17;;
4597;SDS011;62772;48.646;8.906;2023-02-15T19:53:36;35.87;;;14.23;;
4597;SDS011;62772;48.646;8.906;2023-02-15T19:58:36;26.33;;;13.23;;
4597;SDS011;62772;48.646;8.906;2023-02-15T20:03:37;28.67;;;14.60;;
4597;SDS011;62772;48.646;8.906;2023-02-15T20:08:37;24.87;;;13.93;;
4597;SDS011;62772;48.646;8.906;2023-02-15T20:13:38;28.27;;;14.00;;
4597;SDS011;62772;48.646;8.906;2023-02-15T20:18:39;29.40;;;14.27;;
4597;SDS011;62772;48.646;8.906;2023-02-15T20:23:43;31.57;;;16.40;;
4597;SDS011;62772;48.646;8.906;2023-02-15T20:28:44;29.57;;;13.90;;
4597;SDS011;62772;48.646;8.906;2023-02-15T20:33:47;35.17;;;14.23;;
4597;SDS011;62772;48.646;8.906;2023-02-15T20:39:17;23.43;;;12.17;;
4597;SDS011;62772;48.646;8.906;2023-02-15T20:49:32;20.10;;;11.10;;
4597;SDS011;62772;48.646;8.906;2023-02-15T20:54:52;24.40;;;12.07;;
4597;SDS011;62772;48.646;8.906;2023-02-15T20:59:53;32.27;;;14.07;;
4597;SDS011;62772;48.646;8.906;2023-02-15T21:04:54;25.13;;;13.03;;
4597;SDS011;62772;48.646;8.906;2023-02-15T21:09:55;24.83;;;14.30;;
4597;SDS011;62772;48.646;8.906;2023-02-15T21:14:55;35.03;;;15.90;;
4597;SDS011;62772;48.646;8.906;2023-02-15T21:19:56;25.97;;;13.47;;
4597;SDS011;62772;48.646;8.906;2023-02-15T21:24:56;29.00;;;14.50;;
4597;SDS011;62772;48.646;8.906;2023-02-15T21:29:57;24.30;;;13.40;;
4597;SDS011;62772;48.646;8.906;2023-02-15T21:34:57;24.80;;;14.07;;
4597;SDS011;62772;48.646;8.906;2023-02-15T21:39:58;23.60;;;12.90;;
4597;SDS011;62772;48.646;8.906;2023-02-15T21:44:58;28.00;;;14.90;;
4597;SDS011;62772;48.646;8.906;2023-02-15T21:50:21;38.97;;;16.30;;
4597;SDS011;62772;48.646;8.906;2023-02-15T21:55:42;38.70;;;19.07;;
4597;SDS011;62772;48.646;8.906;2023-02-15T22:00:42;38.57;;;18.57;;
4597;SDS011;62772;48.646;8.906;2023-02-15T22:05:43;43.83;;;19.97;;
4597;SDS011;62772;48.646;8.906;2023-02-15T22:10:43;32.60;;;15.50;;
4597;SDS011;62772;48.646;8.906;2023-02-15T22:15:47;32.27;;;14.80;;
4597;SDS011;62772;48.646;8.906;2023-02-15T22:20:47;33.80;;;15.43;;
4597;SDS011;62772;48.646;8.906;2023-02-15T22:25:52;36.87;;;16.50;;
4597;SDS011;62772;48.646;8.906;2023-02-15T22:30:58;27.30;;;14.77;;
4597;SDS011;62772;48.646;8.906;2023-02-15T22:35:59;34.23;;;16.33;;
4597;SDS011;62772;48.646;8.906;2023-02-15T22:41:00;37.37;;;16.80;;
4597;SDS011;62772;48.646;8.906;2023-02-15T22:46:03;53.83;;;16.80;;
4597;SDS011;62772;48.646;8.906;2023-02-15T22:51:16;28.80;;;14.20;;
4597;SDS011;62772;48.646;8.906;2023-02-15T22:56:23;35.27;;;15.03;;
4597;SDS011;62772;48.646;8.906;2023-02-15T23:01:30;26.23;;;14.17;;
4597;SDS011;62772;48.646;8.906;2023-02-15T23:06:32;27.50;;;13.10;;
4597;SDS011;62772;48.646;8.906;2023-02-15T23:11:33;25.33;;;12.93;;
4597;SDS011;62772;48.646;8.906;2023-02-15T23:16:34;25.23;;;13.00;;
4597;SDS011;62772;48.646;8.906;2023-02-15T23:21:36;24.33;;;13.17;;
4597;SDS011;62772;48.646;8.906;2023-02-15T23:26:36;22.23;;;12.23;;
4597;SDS011;62772;48.646;8.906;2023-02-15T23:31:37;27.40;;;12.20;;
4597;SDS011;62772;48.646;8.906;2023-02-15T23:36:40;20.90;;;12.50;;
4597;SDS011;62772;48.646;8.906;2023-02-15T23:41:41;22.63;;;12.10;;
4597;SDS011;62772;48.646;8.906;2023-02-15T23:46:42;20.43;;;10.80;;
4597;SDS011;62772;48.646;8.906;2023-02-15T23:51:46;21.47;;;12.40;;
4597;SDS011;62772;48.646;8.906;2023-02-15T23:56:54;22.10;;;10.97;;
